createdAt,value
2018-05-31T00:00:05.919Z,17.51
2018-05-31T00:01:05.913Z,17.64
2018-05-31T00:02:05.917Z,17.57
2018-05-31T00:03:05.881Z,17.59
2018-05-31T00:04:05.877Z,17.54
2018-05-31T00:05:05.857Z,17.54
2018-05-31T00:06:05.845Z,17.51
2018-05-31T00:07:05.840Z,17.51
2018-05-31T00:08:05.830Z,17.46
2018-05-31T00:09:05.809Z,17.44
2018-05-31T00:10:05.797Z,17.36
2018-05-31T00:11:05.784Z,17.35
2018-05-31T00:12:05.771Z,17.25
2018-05-31T00:13:05.762Z,17.22
2018-05-31T00:14:05.749Z,17.10
2018-05-31T00:15:05.736Z,17.17
2018-05-31T00:16:05.727Z,17.10
2018-05-31T00:17:05.717Z,17.08
2018-05-31T00:18:05.698Z,17.04
2018-05-31T00:19:05.688Z,17.04
2018-05-31T00:20:05.675Z,17.03
2018-05-31T00:21:05.666Z,17.08
2018-05-31T00:22:05.656Z,17.08
2018-05-31T00:23:05.643Z,17.17
2018-05-31T00:24:05.626Z,17.15
2018-05-31T00:25:05.638Z,17.17
2018-05-31T00:26:05.608Z,17.15
2018-05-31T00:27:05.586Z,17.18
2018-05-31T00:28:05.589Z,17.15
2018-05-31T00:29:05.560Z,17.13
2018-05-31T00:30:05.551Z,17.06
2018-05-31T00:31:05.541Z,17.03
2018-05-31T00:32:05.525Z,17.04
2018-05-31T00:33:05.525Z,17.14
2018-05-31T00:34:05.506Z,17.18
2018-05-31T00:35:05.491Z,17.14
2018-05-31T00:36:05.483Z,17.15
2018-05-31T00:37:05.483Z,17.20
2018-05-31T00:38:05.455Z,17.20
2018-05-31T00:39:05.445Z,17.14
2018-05-31T00:40:05.422Z,17.14
2018-05-31T00:41:05.427Z,17.18
2018-05-31T00:42:05.397Z,17.29
2018-05-31T00:43:05.395Z,17.29
2018-05-31T00:44:05.390Z,17.29
2018-05-31T00:45:05.358Z,17.28
2018-05-31T00:46:05.349Z,17.25
2018-05-31T00:47:05.345Z,17.15
2018-05-31T00:48:05.341Z,17.11
2018-05-31T00:49:05.313Z,17.04
2018-05-31T00:50:05.304Z,17.06
2018-05-31T00:51:05.291Z,17.06
2018-05-31T00:52:05.285Z,16.86
2018-05-31T00:53:05.263Z,16.88
2018-05-31T00:54:05.267Z,16.80
2018-05-31T00:55:05.238Z,16.83
2018-05-31T00:56:05.225Z,16.78
2018-05-31T00:57:05.218Z,16.74
2018-05-31T00:58:05.207Z,16.73
2018-05-31T00:59:05.194Z,16.67
2018-05-31T01:00:05.210Z,16.68
2018-05-31T01:01:05.177Z,16.62
2018-05-31T01:02:05.167Z,16.60
2018-05-31T01:03:05.132Z,16.52
2018-05-31T01:04:05.127Z,16.50
2018-05-31T01:05:05.112Z,16.48
2018-05-31T01:06:05.104Z,16.53
2018-05-31T01:07:05.091Z,16.48
2018-05-31T01:08:05.085Z,16.45
2018-05-31T01:09:05.063Z,16.50
2018-05-31T01:10:05.050Z,16.42
2018-05-31T01:11:05.041Z,16.38
2018-05-31T01:12:05.034Z,16.44
2018-05-31T01:13:05.019Z,16.45
2018-05-31T01:14:04.999Z,16.45
2018-05-31T01:15:05.009Z,16.45
2018-05-31T01:16:04.974Z,16.49
2018-05-31T01:17:04.960Z,16.52
2018-05-31T01:18:04.960Z,16.52
2018-05-31T01:19:04.943Z,16.53
2018-05-31T01:20:04.923Z,16.52
2018-05-31T01:21:04.910Z,16.53
2018-05-31T01:22:04.891Z,16.59
2018-05-31T01:23:04.890Z,16.56
2018-05-31T01:24:04.876Z,16.53
2018-05-31T01:25:04.864Z,16.52
2018-05-31T01:26:04.847Z,16.44
2018-05-31T01:27:04.832Z,16.48
2018-05-31T01:28:04.822Z,16.56
2018-05-31T01:29:04.803Z,16.56
2018-05-31T01:30:04.793Z,16.58
2018-05-31T01:31:04.787Z,16.65
2018-05-31T01:32:04.829Z,16.86
2018-05-31T01:33:04.759Z,16.93
2018-05-31T01:34:04.752Z,17.00
2018-05-31T01:35:04.739Z,17.06
2018-05-31T01:36:04.719Z,17.13
2018-05-31T01:37:04.710Z,17.22
2018-05-31T01:38:04.698Z,17.36
2018-05-31T01:39:04.679Z,17.43
2018-05-31T01:40:04.669Z,17.47
2018-05-31T01:41:04.654Z,17.67
2018-05-31T01:42:04.647Z,17.59
2018-05-31T01:43:04.631Z,17.62
2018-05-31T01:44:04.637Z,17.79
2018-05-31T01:45:04.609Z,17.76
2018-05-31T01:46:04.599Z,17.71
2018-05-31T01:47:04.583Z,17.79
2018-05-31T01:48:04.577Z,17.76
2018-05-31T01:49:04.558Z,17.63
2018-05-31T01:50:04.538Z,17.66
2018-05-31T01:51:04.550Z,17.63
2018-05-31T01:52:04.519Z,17.66
2018-05-31T01:53:04.506Z,17.66
2018-05-31T01:54:04.496Z,17.64
2018-05-31T01:55:04.493Z,17.66
2018-05-31T01:56:04.467Z,17.85
2018-05-31T01:57:04.456Z,17.89
2018-05-31T01:58:04.442Z,17.95
2018-05-31T01:59:04.431Z,17.97
2018-05-31T02:00:04.419Z,18.03
2018-05-31T02:01:04.409Z,18.06
2018-05-31T02:02:04.394Z,17.92
2018-05-31T02:03:04.391Z,17.92
2018-05-31T02:04:04.371Z,17.85
2018-05-31T02:05:04.366Z,17.94
2018-05-31T02:06:04.350Z,17.89
2018-05-31T02:07:04.333Z,17.81
2018-05-31T02:08:04.326Z,17.85
2018-05-31T02:09:04.311Z,17.79
2018-05-31T02:10:04.314Z,17.73
2018-05-31T02:11:04.285Z,17.70
2018-05-31T02:12:04.274Z,17.76
2018-05-31T02:13:04.265Z,17.69
2018-05-31T02:14:04.249Z,17.67
2018-05-31T02:15:04.246Z,17.62
2018-05-31T02:16:04.230Z,17.62
2018-05-31T02:17:04.228Z,17.62
2018-05-31T02:18:04.207Z,17.62
2018-05-31T02:19:04.187Z,17.76
2018-05-31T02:20:04.194Z,17.59
2018-05-31T02:21:04.165Z,17.66
2018-05-31T02:22:04.149Z,17.62
2018-05-31T02:23:04.162Z,17.64
2018-05-31T02:24:04.126Z,17.59
2018-05-31T02:25:04.117Z,17.53
2018-05-31T02:26:04.101Z,17.64
2018-05-31T02:27:04.094Z,17.62
2018-05-31T02:28:04.085Z,17.53
2018-05-31T02:29:04.066Z,17.51
2018-05-31T02:30:04.053Z,17.50
2018-05-31T02:31:04.047Z,17.57
2018-05-31T02:32:04.031Z,17.57
2018-05-31T02:33:04.017Z,17.69
2018-05-31T02:34:04.005Z,17.62
2018-05-31T02:35:03.992Z,17.64
2018-05-31T02:36:03.985Z,17.63
2018-05-31T02:37:03.966Z,17.64
2018-05-31T02:38:03.963Z,17.55
2018-05-31T02:39:03.947Z,17.64
2018-05-31T02:40:03.935Z,17.71
2018-05-31T02:41:03.919Z,17.53
2018-05-31T02:42:03.912Z,17.54
2018-05-31T02:43:03.899Z,17.53
2018-05-31T02:44:03.893Z,17.44
2018-05-31T02:45:03.883Z,17.51
2018-05-31T02:46:03.867Z,17.44
2018-05-31T02:47:03.851Z,17.35
2018-05-31T02:48:03.836Z,17.32
2018-05-31T02:49:03.839Z,17.41
2018-05-31T02:50:03.816Z,17.33
2018-05-31T02:51:03.803Z,17.30
2018-05-31T02:52:03.795Z,17.29
2018-05-31T02:53:03.777Z,17.32
2018-05-31T02:54:03.764Z,17.29
2018-05-31T02:55:03.755Z,17.36
2018-05-31T02:56:03.746Z,17.36
2018-05-31T02:57:03.726Z,17.38
2018-05-31T02:58:03.713Z,17.30
2018-05-31T02:59:03.707Z,17.26
2018-05-31T03:00:03.691Z,17.36
2018-05-31T03:01:03.676Z,17.35
2018-05-31T03:02:03.668Z,17.36
2018-05-31T03:03:03.661Z,17.30
2018-05-31T03:04:03.643Z,17.28
2018-05-31T03:05:03.628Z,17.20
2018-05-31T03:06:03.620Z,17.15
2018-05-31T03:07:03.613Z,17.17
2018-05-31T03:08:03.595Z,17.13
2018-05-31T03:09:03.578Z,17.07
2018-05-31T03:10:03.601Z,17.08
2018-05-31T03:11:03.553Z,16.99
2018-05-31T03:12:03.543Z,17.03
2018-05-31T03:13:03.552Z,16.90
2018-05-31T03:14:03.518Z,16.99
2018-05-31T03:15:03.504Z,17.07
2018-05-31T03:16:03.495Z,17.04
2018-05-31T03:17:03.478Z,17.13
2018-05-31T03:18:03.468Z,17.08
2018-05-31T03:19:03.458Z,17.03
2018-05-31T03:20:03.443Z,17.00
2018-05-31T03:21:03.445Z,16.96
2018-05-31T03:22:03.414Z,16.93
2018-05-31T03:23:03.400Z,16.86
2018-05-31T03:24:03.397Z,16.86
2018-05-31T03:25:03.381Z,16.88
2018-05-31T03:26:03.369Z,16.74
2018-05-31T03:27:03.351Z,16.77
2018-05-31T03:28:03.340Z,16.68
2018-05-31T03:29:03.330Z,16.71
2018-05-31T03:30:03.318Z,16.71
2018-05-31T03:31:03.305Z,16.63
2018-05-31T03:32:03.295Z,16.62
2018-05-31T03:33:03.276Z,16.67
2018-05-31T03:34:03.267Z,16.65
2018-05-31T03:35:03.258Z,16.62
2018-05-31T03:36:03.242Z,16.67
2018-05-31T03:37:03.225Z,16.68
2018-05-31T03:38:03.212Z,16.68
2018-05-31T03:39:03.201Z,16.73
2018-05-31T03:40:03.203Z,16.71
2018-05-31T03:41:03.177Z,16.75
2018-05-31T03:42:03.187Z,16.85
2018-05-31T03:43:03.152Z,16.81
2018-05-31T03:44:03.136Z,16.81
2018-05-31T03:45:03.130Z,16.85
2018-05-31T03:46:03.116Z,16.88
2018-05-31T03:47:03.102Z,16.90
2018-05-31T03:48:03.087Z,16.96
2018-05-31T03:49:03.072Z,16.88
2018-05-31T03:50:03.067Z,16.90
2018-05-31T03:51:03.050Z,16.85
2018-05-31T03:52:03.044Z,16.90
2018-05-31T03:53:03.018Z,16.88
2018-05-31T03:54:03.009Z,16.85
2018-05-31T03:55:02.999Z,16.89
2018-05-31T03:56:02.985Z,16.88
2018-05-31T03:57:02.973Z,16.88
2018-05-31T03:58:02.960Z,16.90
2018-05-31T03:59:02.951Z,16.89
2018-05-31T04:00:02.941Z,16.77
2018-05-31T04:01:02.923Z,16.85
2018-05-31T04:02:02.915Z,16.92
2018-05-31T04:03:02.899Z,16.83
2018-05-31T04:04:02.887Z,16.85
2018-05-31T04:05:02.868Z,16.85
2018-05-31T04:06:02.858Z,16.85
2018-05-31T04:07:02.849Z,16.86
2018-05-31T04:08:02.839Z,16.83
2018-05-31T04:09:02.827Z,16.83
2018-05-31T04:10:02.813Z,16.93
2018-05-31T04:11:02.795Z,16.88
2018-05-31T04:12:02.782Z,16.90
2018-05-31T04:13:02.799Z,17.04
2018-05-31T04:14:02.758Z,16.90
2018-05-31T04:15:02.747Z,16.98
2018-05-31T04:16:02.737Z,17.06
2018-05-31T04:17:02.718Z,16.98
2018-05-31T04:18:02.714Z,17.03
2018-05-31T04:19:02.698Z,17.03
2018-05-31T04:20:02.683Z,17.00
2018-05-31T04:21:02.677Z,17.00
2018-05-31T04:22:02.660Z,16.98
2018-05-31T04:23:02.652Z,16.99
2018-05-31T04:24:02.642Z,17.08
2018-05-31T04:25:02.626Z,17.11
2018-05-31T04:26:02.616Z,17.08
2018-05-31T04:27:02.599Z,17.00
2018-05-31T04:28:02.581Z,16.99
2018-05-31T04:29:02.568Z,17.03
2018-05-31T04:30:02.561Z,17.03
2018-05-31T04:31:02.545Z,17.11
2018-05-31T04:32:02.539Z,17.08
2018-05-31T04:33:02.520Z,17.11
2018-05-31T04:34:02.511Z,17.10
2018-05-31T04:35:02.499Z,17.13
2018-05-31T04:36:02.498Z,17.10
2018-05-31T04:37:02.474Z,17.17
2018-05-31T04:38:02.461Z,17.14
2018-05-31T04:39:02.450Z,17.10
2018-05-31T04:40:02.439Z,17.13
2018-05-31T04:41:02.420Z,17.20
2018-05-31T04:42:02.413Z,17.17
2018-05-31T04:43:02.394Z,17.20
2018-05-31T04:44:02.400Z,17.15
2018-05-31T04:45:02.378Z,17.11
2018-05-31T04:46:02.365Z,17.17
2018-05-31T04:47:02.350Z,17.14
2018-05-31T04:48:02.337Z,17.15
2018-05-31T04:49:02.326Z,17.17
2018-05-31T04:50:02.308Z,17.13
2018-05-31T04:51:02.302Z,17.22
2018-05-31T04:52:02.286Z,17.35
2018-05-31T04:53:02.280Z,17.29
2018-05-31T04:54:02.286Z,17.41
2018-05-31T04:55:02.248Z,17.51
2018-05-31T04:56:02.241Z,17.53
2018-05-31T04:57:02.227Z,17.53
2018-05-31T04:58:02.215Z,17.57
2018-05-31T04:59:02.206Z,17.62
2018-05-31T05:00:02.198Z,17.64
2018-05-31T05:01:02.174Z,17.63
2018-05-31T05:02:02.167Z,17.88
2018-05-31T05:03:02.198Z,17.92
2018-05-31T05:04:02.164Z,18.09
2018-05-31T05:05:02.136Z,18.13
2018-05-31T05:06:02.113Z,18.21
2018-05-31T05:07:02.101Z,18.22
2018-05-31T05:08:02.091Z,18.31
2018-05-31T05:09:02.077Z,18.33
2018-05-31T05:10:02.070Z,18.37
2018-05-31T05:11:02.058Z,18.25
2018-05-31T05:12:02.042Z,18.34
2018-05-31T05:13:02.030Z,18.33
2018-05-31T05:14:02.026Z,18.29
2018-05-31T05:15:02.008Z,18.24
2018-05-31T05:16:01.994Z,18.24
2018-05-31T05:17:01.984Z,18.19
2018-05-31T05:18:01.980Z,18.18
2018-05-31T05:19:01.959Z,18.15
2018-05-31T05:20:01.956Z,18.17
2018-05-31T05:21:01.934Z,18.09
2018-05-31T05:22:01.924Z,18.17
2018-05-31T05:23:01.914Z,18.17
2018-05-31T05:24:01.921Z,18.25
2018-05-31T05:25:01.892Z,18.31
2018-05-31T05:26:01.881Z,18.31
2018-05-31T05:27:01.862Z,18.34
2018-05-31T05:28:01.879Z,18.37
2018-05-31T05:29:01.849Z,18.42
2018-05-31T05:30:01.843Z,18.37
2018-05-31T05:31:01.828Z,18.50
2018-05-31T05:32:01.829Z,18.54
2018-05-31T05:33:01.801Z,18.52
2018-05-31T05:34:01.785Z,18.55
2018-05-31T05:35:01.773Z,18.67
2018-05-31T05:36:01.766Z,18.55
2018-05-31T05:37:01.747Z,18.68
2018-05-31T05:38:01.740Z,18.73
2018-05-31T05:39:01.736Z,18.73
2018-05-31T05:40:01.718Z,18.73
2018-05-31T05:41:01.709Z,18.84
2018-05-31T05:42:01.696Z,18.86
2018-05-31T05:43:01.689Z,18.91
2018-05-31T05:44:01.676Z,18.95
2018-05-31T05:45:01.668Z,19.05
2018-05-31T05:46:01.647Z,19.13
2018-05-31T05:47:01.648Z,19.25
2018-05-31T05:48:01.625Z,19.46
2018-05-31T05:49:01.638Z,19.36
2018-05-31T05:50:01.612Z,19.53
2018-05-31T05:51:01.600Z,19.72
2018-05-31T05:52:01.615Z,19.83
2018-05-31T05:53:01.576Z,19.97
2018-05-31T05:54:01.568Z,20.02
2018-05-31T05:55:01.549Z,20.02
2018-05-31T05:56:01.542Z,20.21
2018-05-31T05:57:01.532Z,20.28
2018-05-31T05:58:01.532Z,20.42
2018-05-31T05:59:01.507Z,20.38
2018-05-31T06:00:01.497Z,20.62
2018-05-31T06:01:01.494Z,20.68
2018-05-31T06:02:01.478Z,20.71
2018-05-31T06:03:01.466Z,20.83
2018-05-31T06:04:01.462Z,20.83
2018-05-31T06:05:01.461Z,20.96
2018-05-31T06:06:01.433Z,20.96
2018-05-31T06:07:01.443Z,21.24
2018-05-31T06:08:01.421Z,21.29
2018-05-31T06:09:01.413Z,21.38
2018-05-31T06:10:01.462Z,21.36
2018-05-31T06:11:01.391Z,21.53
2018-05-31T06:12:01.381Z,21.50
2018-05-31T06:13:01.375Z,21.45
2018-05-31T06:14:01.359Z,21.50
2018-05-31T06:15:01.350Z,21.67
2018-05-31T06:16:01.347Z,21.69
2018-05-31T06:17:01.335Z,21.71
2018-05-31T06:18:01.347Z,21.78
2018-05-31T06:19:01.322Z,21.94
2018-05-31T06:20:01.319Z,21.98
2018-05-31T06:21:01.299Z,22.12
2018-05-31T06:22:01.296Z,22.17
2018-05-31T06:23:01.286Z,22.19
2018-05-31T06:24:01.279Z,22.34
2018-05-31T06:25:01.266Z,22.35
2018-05-31T06:26:01.259Z,22.57
2018-05-31T06:27:01.244Z,22.65
2018-05-31T06:28:01.240Z,22.74
2018-05-31T06:29:01.229Z,22.89
2018-05-31T06:30:01.225Z,22.86
2018-05-31T06:31:01.220Z,22.92
2018-05-31T06:32:01.205Z,22.99
2018-05-31T06:33:01.202Z,23.14
2018-05-31T06:34:01.196Z,23.12
2018-05-31T06:35:01.187Z,23.27
2018-05-31T06:36:01.179Z,23.55
2018-05-31T06:37:01.163Z,23.61
2018-05-31T06:38:01.164Z,23.71
2018-05-31T06:39:01.161Z,23.42
2018-05-31T06:40:01.147Z,23.19
2018-05-31T06:41:01.131Z,23.11
2018-05-31T06:42:01.131Z,23.01
2018-05-31T06:43:01.153Z,23.07
2018-05-31T06:44:01.118Z,23.35
2018-05-31T06:45:01.124Z,23.38
2018-05-31T06:46:01.109Z,23.45
2018-05-31T06:47:01.093Z,23.58
2018-05-31T06:48:01.087Z,23.70
2018-05-31T06:49:01.086Z,23.77
2018-05-31T06:50:01.077Z,23.72
2018-05-31T06:51:01.062Z,23.77
2018-05-31T06:52:01.061Z,23.76
2018-05-31T06:53:01.050Z,23.71
2018-05-31T06:54:01.047Z,23.62
2018-05-31T06:55:01.040Z,23.72
2018-05-31T06:56:01.035Z,23.70
2018-05-31T06:57:01.025Z,23.65
2018-05-31T06:58:01.014Z,23.72
2018-05-31T06:59:01.012Z,23.62
2018-05-31T07:00:01.003Z,23.65
2018-05-31T07:01:00.999Z,23.70
2018-05-31T07:02:00.983Z,23.71
2018-05-31T07:03:00.980Z,23.70
2018-05-31T07:04:00.973Z,23.72
2018-05-31T07:05:00.963Z,23.67
2018-05-31T07:06:00.958Z,23.57
2018-05-31T07:07:00.948Z,23.60
2018-05-31T07:08:00.949Z,23.67
2018-05-31T07:09:00.934Z,23.70
2018-05-31T07:10:00.932Z,23.61
2018-05-31T07:11:00.919Z,23.50
2018-05-31T07:12:00.914Z,23.58
2018-05-31T07:13:00.914Z,23.47
2018-05-31T07:14:00.902Z,23.53
2018-05-31T07:15:00.893Z,23.76
2018-05-31T07:16:00.901Z,23.82
2018-05-31T07:17:00.874Z,23.92
2018-05-31T07:18:00.871Z,24.10
2018-05-31T07:19:00.862Z,24.24
2018-05-31T07:20:00.877Z,24.23
2018-05-31T07:21:00.856Z,24.24
2018-05-31T07:22:00.849Z,24.23
2018-05-31T07:23:00.839Z,24.44
2018-05-31T07:24:00.836Z,24.49
2018-05-31T07:25:00.820Z,24.59
2018-05-31T07:26:00.833Z,24.68
2018-05-31T07:27:00.818Z,24.87
2018-05-31T07:28:00.803Z,24.97
2018-05-31T07:29:00.803Z,24.90
2018-05-31T07:30:00.803Z,24.73
2018-05-31T07:31:00.791Z,24.82
2018-05-31T07:32:00.783Z,25.06
2018-05-31T07:33:00.779Z,25.28
2018-05-31T07:34:00.789Z,25.38
2018-05-31T07:35:00.760Z,25.64
2018-05-31T07:36:00.756Z,25.82
2018-05-31T07:37:00.747Z,26.12
2018-05-31T07:38:00.763Z,26.59
2018-05-31T07:39:00.747Z,26.83
2018-05-31T07:40:00.737Z,27.31
2018-05-31T07:41:00.733Z,27.46
2018-05-31T07:42:00.730Z,27.71
2018-05-31T07:43:00.725Z,27.67
2018-05-31T07:44:00.718Z,27.94
2018-05-31T07:45:00.717Z,28.53
2018-05-31T07:46:00.708Z,28.91
2018-05-31T07:47:00.711Z,29.07
2018-05-31T07:48:00.705Z,29.15
2018-05-31T07:49:00.701Z,29.07
2018-05-31T07:50:00.695Z,29.15
2018-05-31T07:51:00.692Z,29.31
2018-05-31T07:52:00.686Z,29.43
2018-05-31T07:53:00.699Z,29.68
2018-05-31T07:54:00.684Z,29.71
2018-05-31T07:55:00.689Z,29.28
2018-05-31T07:56:00.681Z,28.72
2018-05-31T07:57:00.674Z,28.28
2018-05-31T07:58:00.693Z,28.14
2018-05-31T07:59:00.667Z,28.31
2018-05-31T08:00:00.660Z,28.21
2018-05-31T08:01:00.654Z,28.62
2018-05-31T08:02:00.669Z,29.03
2018-05-31T08:03:00.654Z,29.35
2018-05-31T08:04:00.650Z,29.52
2018-05-31T08:05:00.644Z,29.55
2018-05-31T08:06:00.727Z,29.37
2018-05-31T08:07:00.644Z,29.86
2018-05-31T08:08:00.651Z,29.94
2018-05-31T08:09:00.634Z,29.99
2018-05-31T08:10:00.638Z,30.52
2018-05-31T08:11:00.635Z,30.12
2018-05-31T08:12:00.626Z,29.57
2018-05-31T08:13:00.629Z,29.62
2018-05-31T08:14:00.632Z,29.87
2018-05-31T08:15:00.620Z,29.78
2018-05-31T08:16:00.632Z,30.15
2018-05-31T08:17:00.626Z,29.82
2018-05-31T08:18:00.614Z,29.41
2018-05-31T08:19:00.626Z,29.40
2018-05-31T08:20:00.620Z,29.31
2018-05-31T08:21:00.607Z,28.69
2018-05-31T08:22:00.616Z,28.73
2018-05-31T08:23:00.604Z,28.96
2018-05-31T08:24:00.606Z,29.44
2018-05-31T08:25:00.609Z,29.43
2018-05-31T08:26:00.599Z,29.28
2018-05-31T08:27:00.597Z,29.56
2018-05-31T08:28:00.594Z,29.56
2018-05-31T08:29:00.584Z,29.37
2018-05-31T08:30:00.588Z,29.62
2018-05-31T08:31:00.603Z,29.78
2018-05-31T08:32:00.593Z,29.55
2018-05-31T08:33:00.578Z,29.70
2018-05-31T08:34:00.584Z,29.41
2018-05-31T08:35:00.577Z,29.53
2018-05-31T08:36:00.578Z,29.68
2018-05-31T08:37:00.582Z,30.02
2018-05-31T08:38:00.575Z,30.21
2018-05-31T08:39:00.590Z,30.26
2018-05-31T08:40:00.568Z,30.00
2018-05-31T08:41:00.562Z,29.96
2018-05-31T08:42:00.558Z,29.72
2018-05-31T08:43:00.562Z,29.96
2018-05-31T08:44:00.605Z,29.94
2018-05-31T08:45:00.551Z,30.19
2018-05-31T08:46:00.552Z,30.38
2018-05-31T08:47:00.558Z,30.49
2018-05-31T08:48:00.548Z,30.02
2018-05-31T08:49:00.555Z,29.62
2018-05-31T08:50:00.546Z,29.20
2018-05-31T08:51:00.631Z,28.91
2018-05-31T08:52:00.553Z,28.78
2018-05-31T08:53:00.540Z,28.81
2018-05-31T08:54:00.542Z,28.88
2018-05-31T08:55:00.537Z,28.95
2018-05-31T08:56:00.536Z,28.97
2018-05-31T08:57:00.549Z,28.70
2018-05-31T08:58:00.533Z,28.93
2018-05-31T08:59:00.526Z,29.26
2018-05-31T09:00:00.524Z,29.62
2018-05-31T09:01:00.524Z,29.53
2018-05-31T09:02:00.520Z,29.40
2018-05-31T09:03:00.521Z,29.49
2018-05-31T09:04:00.514Z,29.45
2018-05-31T09:05:00.507Z,29.31
2018-05-31T09:06:00.508Z,29.41
2018-05-31T09:07:00.507Z,29.68
2018-05-31T09:08:00.508Z,30.14
2018-05-31T09:09:00.501Z,30.36
2018-05-31T09:10:00.508Z,30.62
2018-05-31T09:11:00.508Z,30.09
2018-05-31T09:12:00.501Z,30.02
2018-05-31T09:13:00.503Z,29.82
2018-05-31T09:14:00.497Z,29.59
2018-05-31T09:15:00.494Z,29.44
2018-05-31T09:16:00.494Z,29.31
2018-05-31T09:17:00.488Z,29.31
2018-05-31T09:18:00.494Z,29.49
2018-05-31T09:19:00.494Z,29.59
2018-05-31T09:20:00.501Z,29.62
2018-05-31T09:21:00.483Z,29.57
2018-05-31T09:22:00.496Z,29.66
2018-05-31T09:23:00.488Z,29.66
2018-05-31T09:24:00.482Z,29.90
2018-05-31T09:25:00.482Z,30.19
2018-05-31T09:26:00.479Z,30.47
2018-05-31T09:27:00.476Z,30.24
2018-05-31T09:28:00.473Z,30.43
2018-05-31T09:29:00.476Z,30.43
2018-05-31T09:30:00.467Z,29.86
2018-05-31T09:31:00.470Z,29.52
2018-05-31T09:32:00.467Z,29.78
2018-05-31T09:33:00.463Z,29.93
2018-05-31T09:34:00.463Z,30.02
2018-05-31T09:35:00.482Z,29.86
2018-05-31T09:36:00.470Z,29.93
2018-05-31T09:37:00.457Z,30.00
2018-05-31T09:38:00.463Z,30.15
2018-05-31T09:39:00.454Z,30.16
2018-05-31T09:40:00.460Z,30.24
2018-05-31T09:41:00.453Z,30.21
2018-05-31T09:42:00.450Z,29.82
2018-05-31T09:43:00.451Z,29.35
2018-05-31T09:44:00.450Z,29.19
2018-05-31T09:45:00.453Z,29.31
2018-05-31T09:46:00.455Z,29.50
2018-05-31T09:47:00.447Z,29.62
2018-05-31T09:48:00.444Z,29.90
2018-05-31T09:49:00.444Z,30.03
2018-05-31T09:50:00.449Z,30.16
2018-05-31T09:51:00.447Z,30.14
2018-05-31T09:52:00.444Z,30.12
2018-05-31T09:53:00.438Z,30.33
2018-05-31T09:54:00.448Z,30.62
2018-05-31T09:55:00.479Z,30.57
2018-05-31T09:56:00.431Z,30.52
2018-05-31T09:57:00.438Z,30.71
2018-05-31T09:58:00.452Z,30.68
2018-05-31T09:59:00.433Z,30.53
2018-05-31T10:00:00.434Z,30.52
2018-05-31T10:01:00.432Z,30.53
2018-05-31T10:02:00.433Z,30.27
2018-05-31T10:03:00.434Z,30.05
2018-05-31T10:04:00.431Z,29.89
2018-05-31T10:05:00.428Z,29.92
2018-05-31T10:06:00.425Z,29.74
2018-05-31T10:07:00.425Z,29.94
2018-05-31T10:08:00.431Z,30.47
2018-05-31T10:09:00.431Z,30.64
2018-05-31T10:10:00.423Z,30.84
2018-05-31T10:11:00.425Z,31.33
2018-05-31T10:12:00.426Z,31.53
2018-05-31T10:13:00.419Z,31.70
2018-05-31T10:14:00.413Z,31.76
2018-05-31T10:15:00.422Z,31.82
2018-05-31T10:16:00.425Z,31.80
2018-05-31T10:17:00.415Z,32.05
2018-05-31T10:18:00.416Z,31.35
2018-05-31T10:19:00.421Z,31.28
2018-05-31T10:20:00.419Z,30.94
2018-05-31T10:21:00.425Z,31.15
2018-05-31T10:22:00.420Z,31.18
2018-05-31T10:23:00.444Z,31.36
2018-05-31T10:24:00.418Z,31.42
2018-05-31T10:25:00.422Z,31.70
2018-05-31T10:26:00.425Z,31.79
2018-05-31T10:27:00.425Z,31.77
2018-05-31T10:28:00.425Z,31.62
2018-05-31T10:29:00.425Z,31.17
2018-05-31T10:30:00.435Z,30.12
2018-05-31T10:31:00.435Z,29.74
2018-05-31T10:32:00.444Z,29.79
2018-05-31T10:33:00.433Z,29.72
2018-05-31T10:34:00.435Z,29.60
2018-05-31T10:35:00.441Z,29.49
2018-05-31T10:36:00.438Z,29.93
2018-05-31T10:37:00.441Z,30.34
2018-05-31T10:38:00.438Z,30.69
2018-05-31T10:39:00.444Z,31.09
2018-05-31T10:40:00.437Z,31.45
2018-05-31T10:41:00.438Z,31.53
2018-05-31T10:42:00.448Z,31.08
2018-05-31T10:43:00.445Z,31.11
2018-05-31T10:44:00.448Z,30.34
2018-05-31T10:45:00.451Z,30.27
2018-05-31T10:46:00.452Z,30.02
2018-05-31T10:47:00.448Z,29.38
2018-05-31T10:48:00.448Z,29.38
2018-05-31T10:49:00.501Z,29.62
2018-05-31T10:50:00.454Z,29.68
2018-05-31T10:51:00.465Z,30.02
2018-05-31T10:52:00.454Z,30.00
2018-05-31T10:53:00.461Z,30.05
2018-05-31T10:54:00.457Z,30.02
2018-05-31T10:55:00.458Z,29.99
2018-05-31T10:56:00.464Z,29.89
2018-05-31T10:57:00.461Z,29.62
2018-05-31T10:58:00.462Z,28.96
2018-05-31T10:59:00.460Z,28.87
2018-05-31T11:00:00.464Z,28.96
2018-05-31T11:01:00.468Z,29.20
2018-05-31T11:02:00.461Z,29.25
2018-05-31T11:03:00.465Z,29.33
2018-05-31T11:04:00.464Z,29.18
2018-05-31T11:05:00.467Z,29.41
2018-05-31T11:06:00.467Z,29.57
2018-05-31T11:07:00.473Z,29.93
2018-05-31T11:08:00.464Z,30.15
2018-05-31T11:09:00.460Z,30.34
2018-05-31T11:10:00.467Z,30.34
2018-05-31T11:11:00.461Z,30.24
2018-05-31T11:12:00.470Z,30.36
2018-05-31T11:13:00.464Z,30.72
2018-05-31T11:14:00.464Z,31.17
2018-05-31T11:15:00.482Z,31.48
2018-05-31T11:16:00.471Z,31.77
2018-05-31T11:17:00.477Z,31.88
2018-05-31T11:18:00.473Z,31.92
2018-05-31T11:19:00.489Z,31.85
2018-05-31T11:20:01.089Z,32.22
2018-05-31T11:21:00.503Z,32.52
2018-05-31T11:22:00.496Z,32.52
2018-05-31T11:23:00.518Z,32.64
2018-05-31T11:24:00.502Z,32.64
2018-05-31T11:25:00.518Z,32.76
2018-05-31T11:26:00.515Z,32.52
2018-05-31T11:27:00.530Z,32.47
2018-05-31T11:28:00.534Z,32.61
2018-05-31T11:29:00.545Z,32.77
2018-05-31T11:30:00.543Z,32.74
2018-05-31T11:31:00.563Z,32.88
2018-05-31T11:32:00.562Z,32.88
2018-05-31T11:33:00.571Z,32.14
2018-05-31T11:34:00.576Z,32.55
2018-05-31T11:35:00.579Z,32.57
2018-05-31T11:36:00.585Z,32.02
2018-05-31T11:37:00.595Z,31.91
2018-05-31T11:38:00.604Z,31.53
2018-05-31T11:39:00.614Z,30.84
2018-05-31T11:40:00.611Z,30.40
2018-05-31T11:41:00.628Z,30.27
2018-05-31T11:42:00.644Z,30.05
2018-05-31T11:43:00.635Z,29.79
2018-05-31T11:44:00.638Z,29.70
2018-05-31T11:45:00.644Z,29.81
2018-05-31T11:46:00.653Z,29.78
2018-05-31T11:47:00.649Z,29.96
2018-05-31T11:48:00.651Z,30.33
2018-05-31T11:49:00.662Z,30.84
2018-05-31T11:50:00.653Z,31.02
2018-05-31T11:51:00.652Z,31.49
2018-05-31T11:52:00.662Z,32.15
2018-05-31T11:53:00.662Z,32.40
2018-05-31T11:54:00.663Z,32.21
2018-05-31T11:55:00.675Z,31.68
2018-05-31T11:56:00.675Z,31.18
2018-05-31T11:57:00.687Z,31.12
2018-05-31T11:58:00.681Z,31.21
2018-05-31T11:59:00.683Z,32.05
2018-05-31T12:00:00.684Z,32.49
2018-05-31T12:01:00.691Z,32.51
2018-05-31T12:02:00.700Z,32.93
2018-05-31T12:03:00.703Z,33.04
2018-05-31T12:04:00.697Z,32.14
2018-05-31T12:05:00.708Z,31.55
2018-05-31T12:06:00.727Z,31.35
2018-05-31T12:07:00.719Z,31.13
2018-05-31T12:08:00.729Z,31.82
2018-05-31T12:09:00.723Z,32.37
2018-05-31T12:10:00.726Z,32.05
2018-05-31T12:11:00.732Z,31.46
2018-05-31T12:12:00.736Z,31.26
2018-05-31T12:13:00.745Z,31.26
2018-05-31T12:14:00.748Z,31.05
2018-05-31T12:15:00.748Z,31.04
2018-05-31T12:16:00.755Z,30.99
2018-05-31T12:17:00.754Z,30.91
2018-05-31T12:18:00.761Z,30.86
2018-05-31T12:19:00.761Z,30.89
2018-05-31T12:20:00.765Z,30.94
2018-05-31T12:21:00.767Z,31.12
2018-05-31T12:22:00.772Z,31.23
2018-05-31T12:23:00.770Z,31.21
2018-05-31T12:24:00.780Z,31.42
2018-05-31T12:25:00.778Z,31.48
2018-05-31T12:26:00.777Z,31.43
2018-05-31T12:27:00.781Z,31.64
2018-05-31T12:28:00.780Z,31.75
2018-05-31T12:29:00.786Z,31.76
2018-05-31T12:30:00.783Z,31.79
2018-05-31T12:31:00.788Z,31.88
2018-05-31T12:32:00.796Z,32.02
2018-05-31T12:33:00.796Z,31.76
2018-05-31T12:34:00.789Z,31.54
2018-05-31T12:35:00.801Z,31.43
2018-05-31T12:36:00.806Z,31.31
2018-05-31T12:37:00.793Z,31.26
2018-05-31T12:38:00.803Z,31.23
2018-05-31T12:39:00.796Z,31.06
2018-05-31T12:40:00.799Z,30.81
2018-05-31T12:41:00.802Z,30.47
2018-05-31T12:42:00.800Z,30.38
2018-05-31T12:43:00.802Z,30.34
2018-05-31T12:44:00.800Z,30.33
2018-05-31T12:45:00.806Z,30.38
2018-05-31T12:46:00.802Z,30.27
2018-05-31T12:47:00.803Z,30.23
2018-05-31T12:48:00.799Z,30.24
2018-05-31T12:49:00.815Z,30.33
2018-05-31T12:50:00.804Z,30.53
2018-05-31T12:51:00.802Z,30.56
2018-05-31T12:52:00.805Z,30.46